createdAt,value
2022-08-11T00:01:29.406Z,24.00
2022-08-11T00:03:59.604Z,24.10
2022-08-11T00:06:28.948Z,24.10
2022-08-11T00:08:58.827Z,24.10
2022-08-11T00:11:37.544Z,24.00
2022-08-11T00:14:12.947Z,24.00
2022-08-11T00:16:42.182Z,23.90
2022-08-11T00:19:11.283Z,24.00
2022-08-11T00:22:03.941Z,23.90
2022-08-11T00:24:51.698Z,23.80
2022-08-11T00:27:20.760Z,23.80
2022-08-11T00:29:55.202Z,23.70
2022-08-11T00:32:22.565Z,23.80
2022-08-11T00:34:50.144Z,23.70
2022-08-11T00:37:23.288Z,23.70
2022-08-11T00:39:53.843Z,23.60
2022-08-11T00:43:03.017Z,23.60
2022-08-11T00:45:59.381Z,23.60
2022-08-11T00:48:42.365Z,23.50
2022-08-11T00:52:04.417Z,23.50
2022-08-11T00:54:50.946Z,23.50
2022-08-11T00:57:38.237Z,23.50
2022-08-11T01:00:19.056Z,23.50
2022-08-11T01:03:07.582Z,23.30
2022-08-11T01:06:08.086Z,23.30
2022-08-11T01:08:38.239Z,23.30
2022-08-11T01:11:20.184Z,23.20
2022-08-11T01:14:08.496Z,23.30
2022-08-11T01:17:00.985Z,23.20
2022-08-11T01:20:44.584Z,23.20
2022-08-11T01:23:41.342Z,23.20
2022-08-11T01:26:29.478Z,23.10
2022-08-11T01:29:52.686Z,23.00
2022-08-11T01:32:57.165Z,23.00
2022-08-11T01:35:53.356Z,23.00
2022-08-11T01:38:40.231Z,23.00
2022-08-11T01:42:00.727Z,22.90
2022-08-11T01:44:46.487Z,22.80
2022-08-11T01:47:53.015Z,22.90
2022-08-11T01:50:47.612Z,22.80
2022-08-11T01:53:33.761Z,22.70
2022-08-11T01:56:15.682Z,22.70
2022-08-11T01:58:54.085Z,22.70
2022-08-11T02:01:37.515Z,22.70
2022-08-11T02:04:29.112Z,22.60
2022-08-11T02:07:19.321Z,22.40
2022-08-11T02:10:35.502Z,22.40
2022-08-11T02:13:30.328Z,22.10
2022-08-11T02:16:29.267Z,21.90
2022-08-11T02:19:24.435Z,21.90
2022-08-11T02:22:20.010Z,21.80
2022-08-11T02:25:04.464Z,21.80
2022-08-11T02:27:45.937Z,21.80
2022-08-11T02:30:16.540Z,21.80
2022-08-11T02:33:27.546Z,21.80
2022-08-11T02:36:10.732Z,21.80
2022-08-11T02:38:51.828Z,21.90
2022-08-11T02:42:02.367Z,21.80
2022-08-11T02:45:04.519Z,21.80
2022-08-11T02:48:25.128Z,21.80
2022-08-11T02:51:08.582Z,21.80
2022-08-11T02:53:58.266Z,21.80
2022-08-11T02:56:32.509Z,21.70
2022-08-11T02:59:50.289Z,21.60
2022-08-11T03:02:42.981Z,21.50
2022-08-11T03:05:14.518Z,21.50
2022-08-11T03:07:59.383Z,21.50
2022-08-11T03:11:13.360Z,21.40
2022-08-11T03:14:07.855Z,21.40
2022-08-11T03:17:11.164Z,21.40
2022-08-11T03:19:46.813Z,21.40
2022-08-11T03:22:30.250Z,21.40
2022-08-11T03:25:15.748Z,21.40
2022-08-11T03:28:06.024Z,21.40
2022-08-11T03:30:56.886Z,21.50
2022-08-11T03:33:53.805Z,21.40
2022-08-11T03:36:28.715Z,21.30
2022-08-11T03:39:05.340Z,21.20
2022-08-11T03:42:01.395Z,21.20
2022-08-11T03:45:02.851Z,21.20
2022-08-11T03:47:53.447Z,21.20
2022-08-11T03:50:24.759Z,21.20
2022-08-11T03:53:02.655Z,21.10
2022-08-11T03:56:06.385Z,21.10
2022-08-11T03:59:01.902Z,21.10
2022-08-11T04:01:59.789Z,21.10
2022-08-11T04:04:57.890Z,21.10
2022-08-11T04:07:59.569Z,21.10
2022-08-11T04:10:46.372Z,21.10
2022-08-11T04:13:31.951Z,21.10
2022-08-11T04:16:12.258Z,21.10
2022-08-11T04:19:03.018Z,21.10
2022-08-11T04:21:44.826Z,21.10
2022-08-11T04:24:39.582Z,21.00
2022-08-11T04:27:37.309Z,21.00
2022-08-11T04:30:14.858Z,20.90
2022-08-11T04:33:00.063Z,20.90
2022-08-11T04:35:59.582Z,20.90
2022-08-11T04:39:09.325Z,20.90
2022-08-11T04:42:44.195Z,20.80
2022-08-11T04:45:39.313Z,20.80
2022-08-11T04:49:07.112Z,20.80
2022-08-11T04:52:37.637Z,20.70
2022-08-11T04:55:32.368Z,20.70
2022-08-11T04:58:31.456Z,20.70
2022-08-11T05:01:41.575Z,20.80
2022-08-11T05:05:09.071Z,20.90
2022-08-11T05:08:01.606Z,20.80
2022-08-11T05:10:47.626Z,20.80
2022-08-11T05:13:48.048Z,20.80
2022-08-11T05:16:38.153Z,20.80
2022-08-11T05:19:23.880Z,20.80
2022-08-11T05:22:16.321Z,20.80
2022-08-11T05:25:07.377Z,20.80
2022-08-11T05:28:09.010Z,20.80
2022-08-11T05:31:00.470Z,20.80
2022-08-11T05:34:10.616Z,20.80
2022-08-11T05:37:23.817Z,20.70
2022-08-11T05:40:18.637Z,20.60
2022-08-11T05:43:21.441Z,20.70
2022-08-11T05:46:25.209Z,20.90
2022-08-11T05:49:11.452Z,20.90
2022-08-11T05:52:05.451Z,20.90
2022-08-11T05:55:06.996Z,21.00
2022-08-11T05:57:48.546Z,21.20
2022-08-11T06:00:19.849Z,21.20
2022-08-11T06:02:55.375Z,21.30
2022-08-11T06:05:38.428Z,21.30
2022-08-11T06:08:13.771Z,21.40
2022-08-11T06:10:43.889Z,21.40
2022-08-11T06:13:15.948Z,21.50
2022-08-11T06:15:49.777Z,21.50
2022-08-11T06:18:18.146Z,21.60
2022-08-11T06:20:50.369Z,21.60
2022-08-11T06:23:20.579Z,21.70
2022-08-11T06:25:48.578Z,21.80
2022-08-11T06:28:21.109Z,22.00
2022-08-11T06:30:49.628Z,22.10
2022-08-11T06:33:22.705Z,22.20
2022-08-11T06:36:07.834Z,22.30
2022-08-11T06:38:59.451Z,22.20
2022-08-11T06:41:35.897Z,22.40
2022-08-11T06:44:13.165Z,22.40
2022-08-11T06:46:43.589Z,22.50
2022-08-11T06:49:32.441Z,22.70
2022-08-11T06:52:02.941Z,22.70
2022-08-11T06:54:41.392Z,22.80
2022-08-11T06:57:32.459Z,22.90
2022-08-11T07:00:19.364Z,23.10
2022-08-11T07:03:08.288Z,23.20
2022-08-11T07:05:56.521Z,23.40
2022-08-11T07:09:14.402Z,23.60
2022-08-11T07:12:09.073Z,23.80
2022-08-11T07:15:00.376Z,23.90
2022-08-11T07:17:32.148Z,24.00
2022-08-11T07:20:22.431Z,24.20
2022-08-11T07:23:17.942Z,24.40
2022-08-11T07:26:10.391Z,24.50
2022-08-11T07:29:00.758Z,24.60
2022-08-11T07:31:50.501Z,24.70
2022-08-11T07:34:47.211Z,24.70
2022-08-11T07:37:17.913Z,24.80
2022-08-11T07:39:48.100Z,24.90
2022-08-11T07:42:21.541Z,25.00
2022-08-11T07:45:08.547Z,25.00
2022-08-11T07:47:56.249Z,24.90
2022-08-11T07:50:42.885Z,24.90
2022-08-11T07:53:14.609Z,25.00
2022-08-11T07:55:51.240Z,25.10
2022-08-11T07:58:45.101Z,25.10
2022-08-11T08:01:41.916Z,25.30
2022-08-11T08:04:30.264Z,25.50
2022-08-11T08:07:16.580Z,25.50
2022-08-11T08:10:03.606Z,25.60
2022-08-11T08:12:50.172Z,25.60
2022-08-11T08:15:36.731Z,25.80
2022-08-11T08:18:20.852Z,26.00
2022-08-11T08:20:55.051Z,26.10
2022-08-11T08:23:34.831Z,26.10
2022-08-11T08:26:28.169Z,26.20
2022-08-11T08:29:21.041Z,26.30
2022-08-11T08:31:49.548Z,26.30
2022-08-11T08:34:17.838Z,26.50
2022-08-11T08:36:47.174Z,26.60
2022-08-11T08:39:20.648Z,26.70
2022-08-11T08:41:57.600Z,26.80
2022-08-11T08:44:42.089Z,26.90
2022-08-11T08:47:16.857Z,27.10
2022-08-11T08:50:21.930Z,27.20
2022-08-11T08:53:05.759Z,27.30
2022-08-11T08:55:34.550Z,27.40
2022-08-11T08:58:03.011Z,27.50
2022-08-11T09:00:42.263Z,27.60
2022-08-11T09:03:36.415Z,27.50
2022-08-11T09:05:58.698Z,27.40
2022-08-11T09:08:25.867Z,27.50
2022-08-11T09:11:14.832Z,27.60
2022-08-11T09:13:46.364Z,27.80
2022-08-11T09:16:31.467Z,28.00
2022-08-11T09:19:01.231Z,28.00
2022-08-11T09:21:48.562Z,28.10
2022-08-11T09:24:36.579Z,28.00
2022-08-11T09:27:07.387Z,27.90
2022-08-11T09:29:35.467Z,28.00
2022-08-11T09:32:02.820Z,28.10
2022-08-11T09:34:30.671Z,28.00
2022-08-11T09:37:28.401Z,28.10
2022-08-11T09:40:27.473Z,28.10
2022-08-11T09:43:17.441Z,28.20
2022-08-11T09:45:50.531Z,28.40
2022-08-11T09:48:25.738Z,28.50
2022-08-11T09:50:55.588Z,28.70
2022-08-11T09:53:36.475Z,28.80
2022-08-11T09:56:39.269Z,28.90
2022-08-11T09:59:07.345Z,29.00
2022-08-11T10:02:03.550Z,29.00
2022-08-11T10:04:46.274Z,29.10
2022-08-11T10:07:20.475Z,29.00
2022-08-11T10:09:59.259Z,29.00
2022-08-11T10:12:34.129Z,28.90
2022-08-11T10:15:27.604Z,28.90
2022-08-11T10:18:20.974Z,29.00
2022-08-11T10:20:50.683Z,29.00
2022-08-11T10:24:00.074Z,29.10
2022-08-11T10:26:47.872Z,29.10
2022-08-11T10:29:36.749Z,29.10
2022-08-11T10:32:27.044Z,29.20
2022-08-11T10:35:01.463Z,29.40
2022-08-11T10:38:15.741Z,29.40
2022-08-11T10:40:25.783Z,29.50
2022-08-11T10:43:13.377Z,29.10
2022-08-11T10:46:05.146Z,29.20
2022-08-11T10:48:39.212Z,29.30
2022-08-11T10:51:13.576Z,29.50
2022-08-11T10:54:12.758Z,29.50
2022-08-11T10:56:59.143Z,29.70
2022-08-11T10:59:29.966Z,29.70
2022-08-11T11:01:59.111Z,29.90
2022-08-11T11:04:58.252Z,30.10
2022-08-11T11:07:44.178Z,30.10
2022-08-11T11:10:12.932Z,30.20
2022-08-11T11:13:02.748Z,30.20
2022-08-11T11:15:54.037Z,30.30
2022-08-11T11:18:36.670Z,30.30
2022-08-11T11:21:10.550Z,30.50
2022-08-11T11:23:49.217Z,30.40
2022-08-11T11:26:27.018Z,30.70
2022-08-11T11:29:20.953Z,30.90
2022-08-11T11:31:56.733Z,31.40
2022-08-11T11:34:47.888Z,31.80
2022-08-11T11:37:23.613Z,32.20
2022-08-11T11:39:54.328Z,32.70
2022-08-11T11:42:22.589Z,32.90
2022-08-11T11:44:53.020Z,33.10
2022-08-11T11:47:23.057Z,33.50
2022-08-11T11:50:12.873Z,34.00
2022-08-11T11:52:41.136Z,34.40
2022-08-11T11:55:15.477Z,34.20
2022-08-11T11:58:03.033Z,34.00
2022-08-11T12:00:58.362Z,34.20
2022-08-11T12:03:26.727Z,34.70
2022-08-11T12:05:55.942Z,34.10
2022-08-11T12:08:27.770Z,34.00
2022-08-11T12:11:20.258Z,34.40
2022-08-11T12:13:53.136Z,34.60
2022-08-11T12:16:35.070Z,34.90
2022-08-11T12:19:15.249Z,35.40
2022-08-11T12:22:02.641Z,35.50
2022-08-11T12:24:51.014Z,35.50
2022-08-11T12:27:25.163Z,35.60
2022-08-11T12:30:05.714Z,35.50
2022-08-11T12:32:36.290Z,35.20
2022-08-11T12:35:04.430Z,35.20
2022-08-11T12:37:41.187Z,35.40
2022-08-11T12:40:49.572Z,35.70
2022-08-11T12:43:42.956Z,35.90
2022-08-11T12:46:16.429Z,35.80
2022-08-11T12:49:05.741Z,36.00
2022-08-11T12:52:14.626Z,36.00
2022-08-11T12:54:52.258Z,35.70
2022-08-11T12:57:53.335Z,35.10
2022-08-11T13:00:40.702Z,34.90
2022-08-11T13:03:28.781Z,34.70
2022-08-11T13:06:02.557Z,34.60
2022-08-11T13:08:38.225Z,35.10
2022-08-11T13:11:55.468Z,34.70
2022-08-11T13:14:16.821Z,34.60
2022-08-11T13:17:03.739Z,34.60
2022-08-11T13:19:31.489Z,35.40
2022-08-11T13:22:02.318Z,36.10
2022-08-11T13:24:30.272Z,36.40
2022-08-11T13:26:58.423Z,36.80
2022-08-11T13:29:28.858Z,37.30
2022-08-11T13:32:01.133Z,37.50
2022-08-11T13:34:31.151Z,37.80
2022-08-11T13:37:01.238Z,37.60
2022-08-11T13:39:32.244Z,37.30
2022-08-11T13:42:01.101Z,37.40
2022-08-11T13:44:31.373Z,37.50
2022-08-11T13:47:03.830Z,37.90
2022-08-11T13:49:33.258Z,38.30
2022-08-11T13:52:04.622Z,38.50
2022-08-11T13:54:35.017Z,38.80
2022-08-11T13:57:13.556Z,39.20
2022-08-11T13:59:49.982Z,39.60
2022-08-11T14:02:30.606Z,39.00
2022-08-11T14:05:23.933Z,38.40
2022-08-11T14:08:01.028Z,38.70
2022-08-11T14:10:32.932Z,38.40
2022-08-11T14:13:42.179Z,37.60
2022-08-11T14:16:20.070Z,37.80
2022-08-11T14:18:50.634Z,38.10
2022-08-11T14:21:37.737Z,38.10
2022-08-11T14:24:05.475Z,37.40
2022-08-11T14:26:38.954Z,37.70
2022-08-11T14:29:08.267Z,37.30
2022-08-11T14:31:38.356Z,37.10
2022-08-11T14:34:08.745Z,37.70
2022-08-11T14:36:40.619Z,37.60
2022-08-11T14:39:13.517Z,37.80
2022-08-11T14:42:11.714Z,37.70
2022-08-11T14:45:01.812Z,37.00
2022-08-11T14:47:34.786Z,36.60
2022-08-11T14:50:10.438Z,36.10
2022-08-11T14:53:05.502Z,35.60
2022-08-11T14:56:00.186Z,34.70
2022-08-11T14:58:30.353Z,34.20
2022-08-11T15:01:00.109Z,34.10
2022-08-11T15:03:31.704Z,33.60
2022-08-11T15:06:02.235Z,33.20
2022-08-11T15:08:49.670Z,32.80
2022-08-11T15:11:42.851Z,32.60
2022-08-11T15:14:12.044Z,32.70
2022-08-11T15:17:01.246Z,32.90
2022-08-11T15:19:36.905Z,32.90
2022-08-11T15:22:28.955Z,32.90
2022-08-11T15:24:59.306Z,32.90
2022-08-11T15:27:48.225Z,32.90
2022-08-11T15:30:34.375Z,32.90
2022-08-11T15:33:27.587Z,32.90
2022-08-11T15:36:15.498Z,32.70
2022-08-11T15:38:58.112Z,32.70
2022-08-11T15:42:01.998Z,32.70
2022-08-11T15:45:06.300Z,32.70
2022-08-11T15:47:48.666Z,32.60
2022-08-11T15:50:19.932Z,32.70
2022-08-11T15:53:16.581Z,32.50
2022-08-11T15:55:45.305Z,32.50
2022-08-11T15:58:33.024Z,32.60
2022-08-11T16:01:20.169Z,32.70
2022-08-11T16:04:13.361Z,32.70
2022-08-11T16:06:49.999Z,32.60
2022-08-11T16:09:47.673Z,32.60
2022-08-11T16:12:36.092Z,32.60
2022-08-11T16:15:26.017Z,32.60
2022-08-11T16:17:59.152Z,32.60
2022-08-11T16:20:28.787Z,32.40
2022-08-11T16:23:01.716Z,32.20
2022-08-11T16:26:38.022Z,32.20
2022-08-11T16:28:23.026Z,32.20
2022-08-11T16:30:53.479Z,32.30
2022-08-11T16:33:48.428Z,32.40
2022-08-11T16:36:31.780Z,32.40
2022-08-11T16:39:00.956Z,32.30
2022-08-11T16:41:50.320Z,32.20
2022-08-11T16:44:38.556Z,32.20
2022-08-11T16:47:10.956Z,32.10
2022-08-11T16:49:53.805Z,32.10
2022-08-11T16:52:23.566Z,32.10
2022-08-11T16:54:52.751Z,32.10
2022-08-11T16:57:44.636Z,32.10
2022-08-11T17:00:15.526Z,32.10
2022-08-11T17:03:15.698Z,32.20
2022-08-11T17:06:07.184Z,32.10
2022-08-11T17:08:58.884Z,32.00
2022-08-11T17:11:55.075Z,32.00
2022-08-11T17:14:37.027Z,31.90
2022-08-11T17:17:15.882Z,31.70
2022-08-11T17:20:38.245Z,31.80
2022-08-11T17:22:56.684Z,31.80
2022-08-11T17:25:28.369Z,31.70
2022-08-11T17:27:57.081Z,31.60
2022-08-11T17:30:47.253Z,31.50
2022-08-11T17:33:33.713Z,31.60
2022-08-11T17:36:01.785Z,31.50
2022-08-11T17:38:31.402Z,31.50
2022-08-11T17:41:23.685Z,31.50
2022-08-11T17:44:12.489Z,31.50
2022-08-11T17:47:25.689Z,31.40
2022-08-11T17:49:53.605Z,31.40
2022-08-11T17:55:51.958Z,31.20
2022-08-11T17:58:40.024Z,31.20
2022-08-11T18:01:09.529Z,31.20
2022-08-11T18:03:41.496Z,31.20
2022-08-11T18:06:12.882Z,31.20
2022-08-11T18:09:03.254Z,31.20
2022-08-11T18:12:06.603Z,31.10
2022-08-11T18:15:04.033Z,31.10
2022-08-11T18:17:51.811Z,31.00
2022-08-11T18:20:38.697Z,31.00
2022-08-11T18:23:46.305Z,30.90
2022-08-11T18:26:39.184Z,30.80
2022-08-11T18:29:27.603Z,30.80
2022-08-11T18:32:21.312Z,30.70
2022-08-11T18:35:10.736Z,30.60
2022-08-11T18:38:02.082Z,30.50
2022-08-11T18:40:49.627Z,30.50
2022-08-11T18:43:38.146Z,30.40
2022-08-11T18:46:30.065Z,30.40
2022-08-11T18:49:24.852Z,30.40
2022-08-11T18:52:16.498Z,30.30
2022-08-11T18:55:05.445Z,30.30
2022-08-11T18:57:58.722Z,30.30
2022-08-11T19:00:46.564Z,30.20
2022-08-11T19:03:43.499Z,30.00
2022-08-11T19:06:40.178Z,30.10
2022-08-11T19:09:33.199Z,30.00
2022-08-11T19:12:24.599Z,29.90
2022-08-11T19:15:11.590Z,29.70
2022-08-11T19:18:03.793Z,29.70
2022-08-11T19:20:51.966Z,29.70
2022-08-11T19:23:57.473Z,29.70
2022-08-11T19:26:43.350Z,29.60
2022-08-11T19:30:06.981Z,29.50
2022-08-11T19:32:39.234Z,29.40
2022-08-11T19:35:25.916Z,29.30
2022-08-11T19:38:13.855Z,29.30
2022-08-11T19:41:00.966Z,29.20
2022-08-11T19:43:49.529Z,29.10
2022-08-11T19:46:41.039Z,29.10
2022-08-11T19:49:28.189Z,29.00
2022-08-11T19:52:15.589Z,28.90
2022-08-11T19:55:03.061Z,28.80
2022-08-11T19:57:56.953Z,28.80
2022-08-11T20:00:44.009Z,28.70
2022-08-11T20:03:32.531Z,28.60
2022-08-11T20:06:24.474Z,28.60
2022-08-11T20:09:14.398Z,28.50
2022-08-11T20:12:03.165Z,28.40
2022-08-11T20:14:51.959Z,28.30
2022-08-11T20:17:39.941Z,28.30
2022-08-11T20:20:27.350Z,28.30
2022-08-11T20:23:15.728Z,28.30
2022-08-11T20:26:27.713Z,28.20
2022-08-11T20:29:12.451Z,28.10
2022-08-11T20:31:59.487Z,28.10
2022-08-11T20:34:50.376Z,28.10
2022-08-11T20:37:40.301Z,28.00
2022-08-11T20:40:26.886Z,28.00
2022-08-11T20:44:05.791Z,28.00
2022-08-11T20:46:49.520Z,27.90
2022-08-11T20:49:48.781Z,27.80
2022-08-11T20:52:50.434Z,27.80
2022-08-11T20:55:52.186Z,27.70
2022-08-11T20:59:13.366Z,27.70
2022-08-11T21:01:52.106Z,27.60
2022-08-11T21:04:53.891Z,27.70
2022-08-11T21:07:42.209Z,27.50
2022-08-11T21:10:30.636Z,27.50
2022-08-11T21:13:25.298Z,27.40
2022-08-11T21:16:26.366Z,27.40
2022-08-11T21:20:01.511Z,27.30
2022-08-11T21:22:37.913Z,27.30
2022-08-11T21:25:28.360Z,27.20
2022-08-11T21:28:21.930Z,27.20
2022-08-11T21:31:08.780Z,27.10
2022-08-11T21:33:55.697Z,27.00
2022-08-11T21:36:43.622Z,27.00
2022-08-11T21:39:35.071Z,27.00
2022-08-11T21:42:22.605Z,27.00
2022-08-11T21:45:09.753Z,26.90
2022-08-11T21:48:01.163Z,26.90
2022-08-11T21:50:48.446Z,26.90
2022-08-11T21:53:34.408Z,26.80
2022-08-11T21:56:20.220Z,26.80
2022-08-11T21:59:07.484Z,26.80
2022-08-11T22:01:54.337Z,26.70
2022-08-11T22:04:40.317Z,26.70
2022-08-11T22:07:27.552Z,26.60
2022-08-11T22:10:37.026Z,26.50
2022-08-11T22:13:20.205Z,26.60
2022-08-11T22:16:05.999Z,26.50
2022-08-11T22:18:53.557Z,26.60
2022-08-11T22:22:03.170Z,26.50
2022-08-11T22:24:48.758Z,26.40
2022-08-11T22:27:34.226Z,26.40
2022-08-11T22:30:19.548Z,26.40
2022-08-11T22:33:05.400Z,26.30
2022-08-11T22:35:52.900Z,26.20
2022-08-11T22:38:40.406Z,26.20
2022-08-11T22:41:25.877Z,26.20
2022-08-11T22:44:11.541Z,26.10
2022-08-11T22:46:57.769Z,26.10
2022-08-11T22:49:57.471Z,26.00
2022-08-11T22:52:47.412Z,26.00
2022-08-11T22:55:34.734Z,25.90
2022-08-11T22:58:22.686Z,25.90
2022-08-11T23:01:09.778Z,25.80
2022-08-11T23:03:56.624Z,25.80
2022-08-11T23:06:43.960Z,25.70
2022-08-11T23:09:30.075Z,25.60
2022-08-11T23:12:16.172Z,25.60
2022-08-11T23:15:02.518Z,25.60
2022-08-11T23:17:48.914Z,25.40
2022-08-11T23:20:42.183Z,25.30
2022-08-11T23:23:41.313Z,25.10
2022-08-11T23:26:28.581Z,25.00
2022-08-11T23:29:18.552Z,24.90
2022-08-11T23:32:05.815Z,24.80
2022-08-11T23:35:04.775Z,24.70
2022-08-11T23:38:00.921Z,24.60
2022-08-11T23:40:46.411Z,24.50
2022-08-11T23:43:41.815Z,24.50
2022-08-11T23:46:27.890Z,24.40
2022-08-11T23:49:17.593Z,24.30
2022-08-11T23:52:05.344Z,24.40
2022-08-11T23:54:52.746Z,24.40
2022-08-11T23:57:47.732Z,24.40
